aviador You're here:

KMCN Decoded Metar

MACON in GA, USA
Report Time2017-06-24 16:53:00
UTC Time2017-06-24 17:12:28
Flight Rules vfr VFR
Wind260° at 13 kt
W.Decomp.*RWY 23: 10.9 kt HW 7.1 kt RCW
RWY 31: 8.9 kt HW 9.5 kt LCW
W.Rank260° ranks 5
Current wind is above 260° avg. (5.8)
Visibility9999 m
Phenomena:N/A
Clouds:Few 025 Hf
Scattered 030 Hf
Overcast 039 Hf
Expected CloudBase > 2,800 ft AGL from Temp-Dew spread
Ceiling3,900 ft
Temp30°C (ISA +16)
Dew Point23°C (66% RH)
Heat Index34.1°C
QNH1017 hPa
Density Alt2,395 ft
Elevation358 ft
Report Wrong Elevation
Raw Report
METAR KMCN 241653Z 26013KT 10SM FEW025 SCT030 OVC039 30/23 A3002 RMK
AO2 LTG DSNT N AND NE AND SW SLP159 T03000228 $=

Extra information for KMCN:More info

Metar Taf Metar & Taf Last 4 Metars F.Rules Stats Wind Profile Meteogram Temp Stats Airport Information Weather charts Add Link Nearby VenuesMetar ALERT Operation Metar Decoded Social comments

AIRNAV info for KMCN